Time;durP1;ratioP1;P1;durP2;ratioP2;P2;SDS_P1;SDS_P2;PMS_P1;PMS_P2;Temp;Humidity;BMP_temperature;BMP_pressure;BME280_temperature;BME280_humidity;BME280_pressure;Samples;Min_cycle;Max_cycle;Signal;HPM_P1;HPM_P2
2022/03/24 00:00:00;;;;;;;29.8;26.7;;;;;;;9.5;100.0;102690;;;;
2022/03/24 00:01:00;;;;;;;29.8;26.7;;;;;;;9.5;100.0;102690;;;;
2022/03/24 00:02:00;;;;;;;31.1;27.7;;;;;;;9.5;100.0;102690;;;;
2022/03/24 00:03:00;;;;;;;31.1;27.7;;;;;;;9.5;100.0;102700;;;;
2022/03/24 00:04:00;;;;;;;31.1;27.7;;;;;;;9.5;100.0;102700;;;;
2022/03/24 00:05:00;;;;;;;31.1;27.7;;;;;;;9.4;100.0;102690;;;;
2022/03/24 00:06:00;;;;;;;31.1;27.7;;;;;;;9.4;100.0;102690;;;;
2022/03/24 00:07:00;;;;;;;31.1;27.7;;;;;;;9.4;100.0;102690;;;;
2022/03/24 00:08:00;;;;;;;31.1;27.7;;;;;;;9.4;100.0;102690;;;;
2022/03/24 00:09:00;;;;;;;31.1;27.7;;;;;;;9.4;100.0;102690;;;;
2022/03/24 00:10:00;;;;;;;31.1;27.7;;;;;;;9.4;100.0;102690;;;;
2022/03/24 00:11:00;;;;;;;31.1;27.7;;;;;;;9.4;100.0;102690;;;;
2022/03/24 00:12:00;;;;;;;31.1;27.7;;;;;;;9.4;100.0;102690;;;;
2022/03/24 00:13:00;;;;;;;31.1;27.7;;;;;;;9.4;100.0;102690;;;;
2022/03/24 00:14:00;;;;;;;31.1;27.7;;;;;;;9.4;100.0;102690;;;;
2022/03/24 00:15:00;;;;;;;31.1;27.7;;;;;;;9.3;100.0;102690;;;;
2022/03/24 00:16:00;;;;;;;31.1;27.7;;;;;;;9.3;100.0;102690;;;;
2022/03/24 00:17:00;;;;;;;31.1;27.7;;;;;;;9.3;100.0;102690;;;;
2022/03/24 00:18:01;;;;;;;31.1;27.7;;;;;;;9.3;100.0;102690;;;;
2022/03/24 00:19:00;;;;;;;31.1;27.7;;;;;;;9.2;100.0;102690;;;;
2022/03/24 00:20:00;;;;;;;31.1;27.7;;;;;;;9.2;100.0;102690;;;;
2022/03/24 00:21:00;;;;;;;31.1;27.7;;;;;;;9.2;100.0;102680;;;;
2022/03/24 00:22:00;;;;;;;30.1;26.9;;;;;;;9.2;100.0;102680;;;;
2022/03/24 00:23:00;;;;;;;30.1;26.9;;;;;;;9.2;100.0;102680;;;;
2022/03/24 00:24:00;;;;;;;30.1;26.9;;;;;;;9.2;100.0;102680;;;;
2022/03/24 00:25:00;;;;;;;30.1;26.9;;;;;;;9.2;100.0;102680;;;;
2022/03/24 00:26:00;;;;;;;30.1;26.9;;;;;;;9.2;100.0;102680;;;;
2022/03/24 00:27:00;;;;;;;30.1;26.9;;;;;;;9.1;100.0;102690;;;;
2022/03/24 00:28:00;;;;;;;30.1;26.9;;;;;;;9.1;100.0;102690;;;;
2022/03/24 00:29:02;;;;;;;30.1;26.9;;;;;;;9.0;100.0;102680;;;;
2022/03/24 00:30:00;;;;;;;30.1;26.9;;;;;;;9.0;100.0;102680;;;;
2022/03/24 00:31:01;;;;;;;30.1;26.9;;;;;;;9.0;100.0;102680;;;;
2022/03/24 00:32:00;;;;;;;30.1;26.9;;;;;;;9.0;100.0;102680;;;;
2022/03/24 00:33:00;;;;;;;30.1;26.9;;;;;;;9.0;100.0;102680;;;;
2022/03/24 00:34:00;;;;;;;30.1;26.9;;;;;;;9.0;100.0;102680;;;;
2022/03/24 00:35:01;;;;;;;30.1;26.9;;;;;;;9.0;100.0;102680;;;;
2022/03/24 00:36:00;;;;;;;30.1;26.9;;;;;;;9.0;100.0;102680;;;;
2022/03/24 00:37:00;;;;;;;30.1;26.9;;;;;;;9.0;100.0;102680;;;;
2022/03/24 00:38:00;;;;;;;30.1;26.9;;;;;;;9.0;100.0;102680;;;;
2022/03/24 00:39:00;;;;;;;30.1;26.9;;;;;;;8.9;100.0;102670;;;;
2022/03/24 00:40:06;;;;;;;30.1;26.9;;;;;;;8.9;100.0;102670;;;;
2022/03/24 00:41:01;;;;;;;30.1;26.9;;;;;;;9.0;100.0;102670;;;;
2022/03/24 00:42:01;;;;;;;30.2;26.9;;;;;;;9.0;100.0;102670;;;;
2022/03/24 00:43:01;;;;;;;30.2;26.9;;;;;;;9.0;100.0;102670;;;;
2022/03/24 00:44:02;;;;;;;30.2;26.9;;;;;;;9.0;100.0;102670;;;;
2022/03/24 00:45:00;;;;;;;30.2;26.9;;;;;;;8.9;100.0;102670;;;;
2022/03/24 00:46:00;;;;;;;30.2;26.9;;;;;;;8.9;100.0;102670;;;;
2022/03/24 00:47:00;;;;;;;30.2;26.9;;;;;;;8.9;100.0;102670;;;;
2022/03/24 00:48:00;;;;;;;30.2;26.9;;;;;;;8.9;100.0;102670;;;;
2022/03/24 00:49:00;;;;;;;30.2;26.9;;;;;;;8.9;100.0;102660;;;;
2022/03/24 00:50:00;;;;;;;30.2;26.9;;;;;;;8.9;100.0;102660;;;;
2022/03/24 00:51:00;;;;;;;30.2;26.9;;;;;;;8.9;100.0;102670;;;;
2022/03/24 00:52:00;;;;;;;30.2;26.9;;;;;;;8.9;100.0;102670;;;;
2022/03/24 00:53:01;;;;;;;30.2;26.9;;;;;;;8.8;100.0;102660;;;;
2022/03/24 00:54:00;;;;;;;30.2;26.9;;;;;;;8.8;100.0;102660;;;;
2022/03/24 00:55:00;;;;;;;30.2;26.9;;;;;;;8.8;100.0;102660;;;;
2022/03/24 00:56:00;;;;;;;30.2;26.9;;;;;;;8.8;100.0;102660;;;;
2022/03/24 00:57:01;;;;;;;30.2;26.9;;;;;;;8.7;100.0;102670;;;;
2022/03/24 00:58:00;;;;;;;30.2;26.9;;;;;;;8.7;100.0;102670;;;;
2022/03/24 00:59:00;;;;;;;30.2;26.9;;;;;;;8.7;100.0;102660;;;;
2022/03/24 01:00:00;;;;;;;30.2;26.9;;;;;;;8.7;100.0;102660;;;;
2022/03/24 01:01:02;;;;;;;30.8;27.5;;;;;;;8.6;100.0;102660;;;;
2022/03/24 01:02:00;;;;;;;30.8;27.5;;;;;;;8.6;100.0;102660;;;;
2022/03/24 01:03:00;;;;;;;30.8;27.5;;;;;;;8.6;100.0;102660;;;;
2022/03/24 01:04:00;;;;;;;30.8;27.5;;;;;;;8.6;100.0;102660;;;;
2022/03/24 01:05:02;;;;;;;30.8;27.5;;;;;;;8.6;100.0;102660;;;;
2022/03/24 01:06:00;;;;;;;30.8;27.5;;;;;;;8.6;100.0;102660;;;;
2022/03/24 01:07:00;;;;;;;30.8;27.5;;;;;;;8.6;100.0;102660;;;;
2022/03/24 01:08:00;;;;;;;30.8;27.5;;;;;;;8.6;100.0;102660;;;;
2022/03/24 01:09:00;;;;;;;30.8;27.5;;;;;;;8.6;100.0;102660;;;;
2022/03/24 01:10:00;;;;;;;30.8;27.5;;;;;;;8.6;100.0;102660;;;;
2022/03/24 01:11:01;;;;;;;30.8;27.5;;;;;;;8.6;100.0;102660;;;;
2022/03/24 01:12:02;;;;;;;30.8;27.5;;;;;;;8.6;100.0;102660;;;;
2022/03/24 01:13:00;;;;;;;30.8;27.5;;;;;;;8.5;100.0;102660;;;;
2022/03/24 01:14:01;;;;;;;30.8;27.5;;;;;;;8.5;100.0;102660;;;;
2022/03/24 01:15:00;;;;;;;30.8;27.5;;;;;;;8.5;100.0;102660;;;;
2022/03/24 01:16:01;;;;;;;30.8;27.5;;;;;;;8.5;100.0;102660;;;;
2022/03/24 01:17:02;;;;;;;30.8;27.5;;;;;;;8.5;100.0;102660;;;;
2022/03/24 01:18:00;;;;;;;30.8;27.5;;;;;;;8.5;100.0;102660;;;;
2022/03/24 01:19:00;;;;;;;30.8;27.5;;;;;;;8.5;100.0;102660;;;;
2022/03/24 01:20:00;;;;;;;30.8;27.5;;;;;;;8.5;100.0;102660;;;;
2022/03/24 01:21:05;;;;;;;31.4;26.8;;;;;;;8.5;100.0;102660;;;;
2022/03/24 01:22:00;;;;;;;31.4;26.8;;;;;;;8.5;100.0;102660;;;;
2022/03/24 01:23:00;;;;;;;31.4;26.8;;;;;;;8.4;100.0;102660;;;;
2022/03/24 01:24:00;;;;;;;31.4;26.8;;;;;;;8.4;100.0;102660;;;;
2022/03/24 01:25:00;;;;;;;31.4;26.8;;;;;;;8.4;100.0;102650;;;;
2022/03/24 01:26:00;;;;;;;31.4;26.8;;;;;;;8.4;100.0;102650;;;;
2022/03/24 01:27:00;;;;;;;31.4;26.8;;;;;;;8.3;100.0;102650;;;;
2022/03/24 01:28:00;;;;;;;31.4;26.8;;;;;;;8.3;100.0;102650;;;;
2022/03/24 01:29:00;;;;;;;31.4;26.8;;;;;;;8.3;100.0;102650;;;;
2022/03/24 01:30:00;;;;;;;31.4;26.8;;;;;;;8.3;100.0;102650;;;;
2022/03/24 01:31:00;;;;;;;31.4;26.8;;;;;;;8.3;100.0;102650;;;;
2022/03/24 01:32:00;;;;;;;31.4;26.8;;;;;;;8.3;100.0;102650;;;;
2022/03/24 01:33:00;;;;;;;31.4;26.8;;;;;;;8.2;100.0;102650;;;;
2022/03/24 01:34:00;;;;;;;31.4;26.8;;;;;;;8.2;100.0;102650;;;;
2022/03/24 01:35:00;;;;;;;31.4;26.8;;;;;;;8.2;100.0;102650;;;;
2022/03/24 01:36:00;;;;;;;31.4;26.8;;;;;;;8.2;100.0;102650;;;;
2022/03/24 01:37:00;;;;;;;31.4;26.8;;;;;;;8.3;100.0;102640;;;;
2022/03/24 01:38:00;;;;;;;31.4;26.8;;;;;;;8.3;100.0;102640;;;;
2022/03/24 01:39:00;;;;;;;31.4;26.8;;;;;;;8.2;100.0;102650;;;;
2022/03/24 01:40:00;;;;;;;31.4;26.8;;;;;;;8.2;100.0;102650;;;;
2022/03/24 01:41:00;;;;;;;29.2;26.2;;;;;;;8.3;100.0;102640;;;;
2022/03/24 01:42:00;;;;;;;29.2;26.2;;;;;;;8.3;100.0;102640;;;;
2022/03/24 01:43:00;;;;;;;29.2;26.2;;;;;;;8.2;100.0;102640;;;;
2022/03/24 01:44:00;;;;;;;29.2;26.2;;;;;;;8.2;100.0;102640;;;;
2022/03/24 01:45:00;;;;;;;29.2;26.2;;;;;;;8.2;100.0;102640;;;;
2022/03/24 01:46:00;;;;;;;29.2;26.2;;;;;;;8.2;100.0;102640;;;;
2022/03/24 01:47:01;;;;;;;29.2;26.2;;;;;;;8.1;100.0;102640;;;;
2022/03/24 01:48:00;;;;;;;29.2;26.2;;;;;;;8.1;100.0;102640;;;;
2022/03/24 01:49:00;;;;;;;29.2;26.2;;;;;;;8.1;100.0;102640;;;;
2022/03/24 01:50:00;;;;;;;29.2;26.2;;;;;;;8.1;100.0;102640;;;;
2022/03/24 01:51:00;;;;;;;29.2;26.2;;;;;;;8.1;100.0;102630;;;;
2022/03/24 01:52:00;;;;;;;29.2;26.2;;;;;;;8.1;100.0;102630;;;;
2022/03/24 01:53:00;;;;;;;29.2;26.2;;;;;;;8.0;100.0;102640;;;;
2022/03/24 01:54:00;;;;;;;29.2;26.2;;;;;;;8.0;100.0;102640;;;;
2022/03/24 01:55:00;;;;;;;29.2;26.2;;;;;;;8.0;100.0;102640;;;;
2022/03/24 01:56:00;;;;;;;29.2;26.2;;;;;;;8.0;100.0;102640;;;;
2022/03/24 01:57:00;;;;;;;29.2;26.2;;;;;;;8.0;100.0;102640;;;;
2022/03/24 01:58:01;;;;;;;29.2;26.2;;;;;;;8.0;100.0;102640;;;;
2022/03/24 01:59:00;;;;;;;29.2;26.2;;;;;;;8.0;100.0;102630;;;;
2022/03/24 02:00:00;;;;;;;29.2;26.2;;;;;;;8.0;100.0;102630;;;;
2022/03/24 02:01:13;;;;;;;30.9;27.6;;;;;;;8.1;100.0;102630;;;;
2022/03/24 02:02:00;;;;;;;30.9;27.6;;;;;;;8.1;100.0;102630;;;;
2022/03/24 02:03:03;;;;;;;30.9;27.6;;;;;;;8.0;100.0;102630;;;;
2022/03/24 02:04:00;;;;;;;30.9;27.6;;;;;;;8.0;100.0;102630;;;;
2022/03/24 02:05:00;;;;;;;30.9;27.6;;;;;;;7.9;100.0;102630;;;;
2022/03/24 02:06:00;;;;;;;30.9;27.6;;;;;;;7.9;100.0;102630;;;;
2022/03/24 02:07:00;;;;;;;30.9;27.6;;;;;;;7.8;100.0;102630;;;;
2022/03/24 02:08:03;;;;;;;30.9;27.6;;;;;;;7.8;100.0;102630;;;;
2022/03/24 02:09:00;;;;;;;30.9;27.6;;;;;;;7.8;100.0;102630;;;;
2022/03/24 02:10:01;;;;;;;30.9;27.6;;;;;;;7.8;100.0;102630;;;;
2022/03/24 02:11:00;;;;;;;30.9;27.6;;;;;;;7.8;100.0;102630;;;;
2022/03/24 02:12:01;;;;;;;30.9;27.6;;;;;;;7.8;100.0;102630;;;;
2022/03/24 02:13:01;;;;;;;30.9;27.6;;;;;;;7.8;100.0;102620;;;;
2022/03/24 02:14:00;;;;;;;30.9;27.6;;;;;;;7.8;100.0;102620;;;;
2022/03/24 02:15:00;;;;;;;30.9;27.6;;;;;;;7.8;100.0;102620;;;;
2022/03/24 02:16:01;;;;;;;30.9;27.6;;;;;;;7.8;100.0;102620;;;;
2022/03/24 02:17:00;;;;;;;30.9;27.6;;;;;;;7.8;100.0;102620;;;;
2022/03/24 02:18:00;;;;;;;30.9;27.6;;;;;;;7.8;100.0;102620;;;;
2022/03/24 02:19:10;;;;;;;30.9;27.6;;;;;;;7.7;100.0;102620;;;;
2022/03/24 02:20:00;;;;;;;30.9;27.6;;;;;;;7.7;100.0;102620;;;;
2022/03/24 02:21:00;;;;;;;31.4;27.1;;;;;;;7.8;100.0;102620;;;;
2022/03/24 02:22:07;;;;;;;31.4;27.1;;;;;;;7.8;100.0;102620;;;;
2022/03/24 02:23:01;;;;;;;31.4;27.1;;;;;;;7.7;100.0;102620;;;;
2022/03/24 02:24:00;;;;;;;31.4;27.1;;;;;;;7.7;100.0;102620;;;;
2022/03/24 02:25:00;;;;;;;31.4;27.1;;;;;;;7.7;100.0;102620;;;;
2022/03/24 02:26:00;;;;;;;31.4;27.1;;;;;;;7.7;100.0;102620;;;;
2022/03/24 02:27:02;;;;;;;31.4;27.1;;;;;;;7.6;100.0;102620;;;;
2022/03/24 02:28:02;;;;;;;31.4;27.1;;;;;;;7.6;100.0;102620;;;;
2022/03/24 02:29:01;;;;;;;31.4;27.1;;;;;;;7.6;100.0;102620;;;;
2022/03/24 02:30:00;;;;;;;31.4;27.1;;;;;;;7.6;100.0;102620;;;;
2022/03/24 02:31:00;;;;;;;31.4;27.1;;;;;;;7.6;100.0;102620;;;;
2022/03/24 02:32:00;;;;;;;31.4;27.1;;;;;;;7.6;100.0;102620;;;;
2022/03/24 02:33:00;;;;;;;31.4;27.1;;;;;;;7.6;100.0;102620;;;;
2022/03/24 02:35:00;;;;;;;31.4;27.1;;;;;;;7.6;100.0;102610;;;;
2022/03/24 02:36:00;;;;;;;31.4;27.1;;;;;;;7.6;100.0;102610;;;;
2022/03/24 02:37:00;;;;;;;31.4;27.1;;;;;;;7.5;100.0;102610;;;;
2022/03/24 02:38:00;;;;;;;31.4;27.1;;;;;;;7.5;100.0;102610;;;;
2022/03/24 02:39:00;;;;;;;31.4;27.1;;;;;;;7.5;100.0;102610;;;;
2022/03/24 02:40:00;;;;;;;31.4;27.1;;;;;;;7.5;100.0;102610;;;;
2022/03/24 02:41:00;;;;;;;30.6;26.8;;;;;;;7.5;100.0;102610;;;;
2022/03/24 02:42:00;;;;;;;30.6;26.8;;;;;;;7.5;100.0;102610;;;;
2022/03/24 02:43:01;;;;;;;30.6;26.8;;;;;;;7.4;100.0;102620;;;;
2022/03/24 02:44:02;;;;;;;30.6;26.8;;;;;;;7.4;100.0;102620;;;;
2022/03/24 02:45:02;;;;;;;30.6;26.8;;;;;;;7.4;100.0;102620;;;;
2022/03/24 02:46:00;;;;;;;30.6;26.8;;;;;;;7.4;100.0;102620;;;;
2022/03/24 02:47:02;;;;;;;30.6;26.8;;;;;;;7.4;100.0;102620;;;;
2022/03/24 02:48:02;;;;;;;30.6;26.8;;;;;;;7.4;100.0;102620;;;;
2022/03/24 02:49:00;;;;;;;30.6;26.8;;;;;;;7.3;100.0;102620;;;;
2022/03/24 02:50:00;;;;;;;30.6;26.8;;;;;;;7.3;100.0;102620;;;;
2022/03/24 02:51:02;;;;;;;30.6;26.8;;;;;;;7.4;100.0;102620;;;;
2022/03/24 02:52:00;;;;;;;30.6;26.8;;;;;;;7.4;100.0;102620;;;;
2022/03/24 02:53:00;;;;;;;30.6;26.8;;;;;;;7.3;100.0;102620;;;;
2022/03/24 02:54:00;;;;;;;30.6;26.8;;;;;;;7.3;100.0;102620;;;;
2022/03/24 02:55:00;;;;;;;30.6;26.8;;;;;;;7.3;100.0;102620;;;;
2022/03/24 02:56:00;;;;;;;30.6;26.8;;;;;;;7.3;100.0;102620;;;;
2022/03/24 02:57:00;;;;;;;30.6;26.8;;;;;;;7.2;100.0;102620;;;;
2022/03/24 02:58:00;;;;;;;30.6;26.8;;;;;;;7.2;100.0;102620;;;;
2022/03/24 02:59:00;;;;;;;30.6;26.8;;;;;;;7.2;100.0;102620;;;;
2022/03/24 03:00:00;;;;;;;30.6;26.8;;;;;;;7.2;100.0;102620;;;;
2022/03/24 03:01:00;;;;;;;29.7;26.2;;;;;;;7.3;100.0;102620;;;;
2022/03/24 03:02:01;;;;;;;29.7;26.2;;;;;;;7.3;100.0;102620;;;;
2022/03/24 03:03:00;;;;;;;29.7;26.2;;;;;;;7.2;100.0;102620;;;;
2022/03/24 03:04:00;;;;;;;29.7;26.2;;;;;;;7.2;100.0;102620;;;;
2022/03/24 03:05:00;;;;;;;29.7;26.2;;;;;;;7.1;100.0;102620;;;;
2022/03/24 03:06:00;;;;;;;29.7;26.2;;;;;;;7.1;100.0;102620;;;;
2022/03/24 03:07:02;;;;;;;29.7;26.2;;;;;;;7.1;100.0;102620;;;;
2022/03/24 03:08:00;;;;;;;29.7;26.2;;;;;;;7.1;100.0;102620;;;;
2022/03/24 03:09:01;;;;;;;29.7;26.2;;;;;;;7.1;100.0;102620;;;;
2022/03/24 03:10:00;;;;;;;29.7;26.2;;;;;;;7.1;100.0;102620;;;;
2022/03/24 03:11:00;;;;;;;29.7;26.2;;;;;;;7.1;100.0;102620;;;;
2022/03/24 03:12:00;;;;;;;29.7;26.2;;;;;;;7.1;100.0;102620;;;;
2022/03/24 03:13:00;;;;;;;29.7;26.2;;;;;;;7.1;100.0;102620;;;;
2022/03/24 03:14:00;;;;;;;29.7;26.2;;;;;;;7.1;100.0;102620;;;;
2022/03/24 03:15:00;;;;;;;29.7;26.2;;;;;;;7.0;100.0;102620;;;;
2022/03/24 03:16:00;;;;;;;29.7;26.2;;;;;;;7.0;100.0;102620;;;;
2022/03/24 03:17:00;;;;;;;29.7;26.2;;;;;;;7.0;100.0;102620;;;;
2022/03/24 03:18:00;;;;;;;29.7;26.2;;;;;;;7.0;100.0;102620;;;;
2022/03/24 03:19:00;;;;;;;29.7;26.2;;;;;;;7.0;100.0;102620;;;;
2022/03/24 03:20:00;;;;;;;29.7;26.2;;;;;;;7.0;100.0;102620;;;;
2022/03/24 03:21:00;;;;;;;28.2;25.3;;;;;;;7.1;100.0;102620;;;;
2022/03/24 03:22:00;;;;;;;28.2;25.3;;;;;;;7.1;100.0;102620;;;;
2022/03/24 03:23:03;;;;;;;28.2;25.3;;;;;;;7.0;100.0;102620;;;;
2022/03/24 03:24:00;;;;;;;28.2;25.3;;;;;;;7.0;100.0;102620;;;;
2022/03/24 03:25:00;;;;;;;28.2;25.3;;;;;;;7.0;100.0;102620;;;;
2022/03/24 03:26:00;;;;;;;28.2;25.3;;;;;;;7.0;100.0;102620;;;;
2022/03/24 03:27:00;;;;;;;28.2;25.3;;;;;;;6.9;100.0;102620;;;;
2022/03/24 03:28:00;;;;;;;28.2;25.3;;;;;;;6.9;100.0;102620;;;;
2022/03/24 03:29:00;;;;;;;28.2;25.3;;;;;;;7.0;100.0;102620;;;;
2022/03/24 03:30:00;;;;;;;28.2;25.3;;;;;;;7.0;100.0;102620;;;;
2022/03/24 03:31:00;;;;;;;28.2;25.3;;;;;;;6.9;100.0;102620;;;;
2022/03/24 03:32:00;;;;;;;28.2;25.3;;;;;;;6.9;100.0;102620;;;;
2022/03/24 03:33:00;;;;;;;28.2;25.3;;;;;;;6.9;100.0;102620;;;;
2022/03/24 03:34:02;;;;;;;28.2;25.3;;;;;;;6.9;100.0;102620;;;;
2022/03/24 03:35:01;;;;;;;28.2;25.3;;;;;;;6.9;100.0;102620;;;;
2022/03/24 03:36:00;;;;;;;28.2;25.3;;;;;;;6.9;100.0;102620;;;;
2022/03/24 03:37:00;;;;;;;28.2;25.3;;;;;;;6.8;100.0;102620;;;;
2022/03/24 03:38:00;;;;;;;28.2;25.3;;;;;;;6.8;100.0;102620;;;;
2022/03/24 03:39:00;;;;;;;28.2;25.3;;;;;;;6.8;100.0;102620;;;;
2022/03/24 03:40:00;;;;;;;28.2;25.3;;;;;;;6.8;100.0;102620;;;;
2022/03/24 03:41:02;;;;;;;29.3;26.3;;;;;;;6.9;100.0;102620;;;;
2022/03/24 03:42:00;;;;;;;29.3;26.3;;;;;;;6.9;100.0;102620;;;;
2022/03/24 03:43:00;;;;;;;29.3;26.3;;;;;;;6.8;100.0;102620;;;;
2022/03/24 03:44:00;;;;;;;29.3;26.3;;;;;;;6.8;100.0;102620;;;;
2022/03/24 03:45:00;;;;;;;29.3;26.3;;;;;;;6.8;100.0;102620;;;;
2022/03/24 03:46:01;;;;;;;29.3;26.3;;;;;;;6.8;100.0;102620;;;;
2022/03/24 03:47:01;;;;;;;29.3;26.3;;;;;;;6.7;100.0;102620;;;;
2022/03/24 03:48:00;;;;;;;29.3;26.3;;;;;;;6.7;100.0;102620;;;;
2022/03/24 03:49:00;;;;;;;29.3;26.3;;;;;;;6.7;100.0;102620;;;;
2022/03/24 03:50:04;;;;;;;29.3;26.3;;;;;;;6.7;100.0;102620;;;;
2022/03/24 03:51:00;;;;;;;29.3;26.3;;;;;;;6.7;100.0;102620;;;;
2022/03/24 03:52:00;;;;;;;29.3;26.3;;;;;;;6.7;100.0;102620;;;;
2022/03/24 03:53:00;;;;;;;29.3;26.3;;;;;;;6.7;100.0;102620;;;;
2022/03/24 03:54:00;;;;;;;29.3;26.3;;;;;;;6.7;100.0;102620;;;;
2022/03/24 03:55:00;;;;;;;29.3;26.3;;;;;;;6.6;100.0;102620;;;;
2022/03/24 03:56:00;;;;;;;29.3;26.3;;;;;;;6.6;100.0;102620;;;;
2022/03/24 03:57:00;;;;;;;29.3;26.3;;;;;;;6.6;100.0;102620;;;;
2022/03/24 03:58:00;;;;;;;29.3;26.3;;;;;;;6.6;100.0;102620;;;;
2022/03/24 03:59:00;;;;;;;29.3;26.3;;;;;;;6.6;100.0;102620;;;;
2022/03/24 04:00:52;;;;;;;29.3;26.3;;;;;;;6.6;100.0;102620;;;;
2022/03/24 04:01:00;;;;;;;29.4;26.4;;;;;;;6.6;100.0;102620;;;;
2022/03/24 04:02:00;;;;;;;29.4;26.4;;;;;;;6.6;100.0;102620;;;;
2022/03/24 04:03:04;;;;;;;29.4;26.4;;;;;;;6.6;100.0;102620;;;;
2022/03/24 04:04:00;;;;;;;29.4;26.4;;;;;;;6.6;100.0;102620;;;;
2022/03/24 04:05:00;;;;;;;29.4;26.4;;;;;;;6.6;100.0;102630;;;;
2022/03/24 04:06:01;;;;;;;29.4;26.4;;;;;;;6.6;100.0;102630;;;;
2022/03/24 04:07:00;;;;;;;29.4;26.4;;;;;;;6.5;100.0;102630;;;;
2022/03/24 04:08:01;;;;;;;29.4;26.4;;;;;;;6.5;100.0;102630;;;;
2022/03/24 04:09:00;;;;;;;29.4;26.4;;;;;;;6.5;100.0;102630;;;;
2022/03/24 04:10:00;;;;;;;29.4;26.4;;;;;;;6.5;100.0;102630;;;;
2022/03/24 04:11:00;;;;;;;29.4;26.4;;;;;;;6.5;100.0;102630;;;;
2022/03/24 04:12:00;;;;;;;29.4;26.4;;;;;;;6.5;100.0;102630;;;;
2022/03/24 04:13:04;;;;;;;29.4;26.4;;;;;;;6.5;100.0;102630;;;;
2022/03/24 04:14:00;;;;;;;29.4;26.4;;;;;;;6.5;100.0;102630;;;;
2022/03/24 04:15:00;;;;;;;29.4;26.4;;;;;;;6.4;100.0;102630;;;;
2022/03/24 04:16:00;;;;;;;29.4;26.4;;;;;;;6.4;100.0;102630;;;;
2022/03/24 04:17:00;;;;;;;29.4;26.4;;;;;;;6.4;100.0;102630;;;;
2022/03/24 04:18:00;;;;;;;29.4;26.4;;;;;;;6.4;100.0;102630;;;;
2022/03/24 04:19:00;;;;;;;29.4;26.4;;;;;;;6.4;100.0;102630;;;;
2022/03/24 04:20:00;;;;;;;29.4;26.4;;;;;;;6.4;100.0;102630;;;;
2022/03/24 04:21:00;;;;;;;29.5;25.6;;;;;;;6.4;100.0;102630;;;;
2022/03/24 04:22:01;;;;;;;29.5;25.6;;;;;;;6.4;100.0;102630;;;;
2022/03/24 04:23:01;;;;;;;29.5;25.6;;;;;;;6.4;100.0;102630;;;;
2022/03/24 04:24:00;;;;;;;29.5;25.6;;;;;;;6.4;100.0;102630;;;;
2022/03/24 04:25:00;;;;;;;29.5;25.6;;;;;;;6.4;100.0;102630;;;;
2022/03/24 04:26:00;;;;;;;29.5;25.6;;;;;;;6.4;100.0;102630;;;;
2022/03/24 04:27:00;;;;;;;29.5;25.6;;;;;;;6.3;100.0;102620;;;;
2022/03/24 04:28:00;;;;;;;29.5;25.6;;;;;;;6.3;100.0;102620;;;;
2022/03/24 04:29:00;;;;;;;29.5;25.6;;;;;;;6.3;100.0;102630;;;;
2022/03/24 04:30:00;;;;;;;29.5;25.6;;;;;;;6.3;100.0;102630;;;;
2022/03/24 04:31:00;;;;;;;29.5;25.6;;;;;;;6.2;100.0;102630;;;;
2022/03/24 04:32:00;;;;;;;29.5;25.6;;;;;;;6.2;100.0;102630;;;;
2022/03/24 04:33:00;;;;;;;29.5;25.6;;;;;;;6.2;100.0;102630;;;;
2022/03/24 04:34:00;;;;;;;29.5;25.6;;;;;;;6.2;100.0;102630;;;;
2022/03/24 04:35:00;;;;;;;29.5;25.6;;;;;;;6.2;100.0;102630;;;;
2022/03/24 04:36:00;;;;;;;29.5;25.6;;;;;;;6.2;100.0;102630;;;;
2022/03/24 04:37:00;;;;;;;29.5;25.6;;;;;;;6.1;100.0;102630;;;;
2022/03/24 04:38:00;;;;;;;29.5;25.6;;;;;;;6.1;100.0;102630;;;;
2022/03/24 04:39:02;;;;;;;29.5;25.6;;;;;;;6.1;100.0;102630;;;;
2022/03/24 04:40:00;;;;;;;29.5;25.6;;;;;;;6.1;100.0;102630;;;;
2022/03/24 04:41:00;;;;;;;29.4;25.5;;;;;;;6.2;100.0;102630;;;;
2022/03/24 04:42:00;;;;;;;29.4;25.5;;;;;;;6.2;100.0;102630;;;;
2022/03/24 04:43:00;;;;;;;29.4;25.5;;;;;;;6.1;100.0;102630;;;;
2022/03/24 04:44:00;;;;;;;29.4;25.5;;;;;;;6.1;100.0;102630;;;;
2022/03/24 04:45:00;;;;;;;29.4;25.5;;;;;;;6.1;100.0;102630;;;;
2022/03/24 04:46:00;;;;;;;29.4;25.5;;;;;;;6.1;100.0;102630;;;;
2022/03/24 04:47:00;;;;;;;29.4;25.5;;;;;;;6.1;100.0;102630;;;;
2022/03/24 04:48:01;;;;;;;29.4;25.5;;;;;;;6.1;100.0;102630;;;;
2022/03/24 04:49:02;;;;;;;29.4;25.5;;;;;;;6.1;100.0;102630;;;;
2022/03/24 04:50:00;;;;;;;29.4;25.5;;;;;;;6.1;100.0;102630;;;;
2022/03/24 04:51:00;;;;;;;29.4;25.5;;;;;;;6.0;100.0;102630;;;;
2022/03/24 04:52:03;;;;;;;29.4;25.5;;;;;;;6.0;100.0;102630;;;;
2022/03/24 04:53:00;;;;;;;29.4;25.5;;;;;;;6.0;100.0;102640;;;;
2022/03/24 04:54:00;;;;;;;29.4;25.5;;;;;;;6.0;100.0;102640;;;;
2022/03/24 04:55:00;;;;;;;29.4;25.5;;;;;;;6.0;100.0;102640;;;;
2022/03/24 04:56:00;;;;;;;29.4;25.5;;;;;;;6.0;100.0;102640;;;;
2022/03/24 04:57:00;;;;;;;29.4;25.5;;;;;;;5.9;100.0;102640;;;;
2022/03/24 04:58:00;;;;;;;29.4;25.5;;;;;;;5.9;100.0;102640;;;;
2022/03/24 04:59:00;;;;;;;29.4;25.5;;;;;;;6.0;100.0;102640;;;;
2022/03/24 05:00:00;;;;;;;29.4;25.5;;;;;;;6.0;100.0;102640;;;;
2022/03/24 05:01:00;;;;;;;28.5;25.6;;;;;;;6.0;100.0;102640;;;;
2022/03/24 05:02:00;;;;;;;28.5;25.6;;;;;;;6.0;100.0;102640;;;;
2022/03/24 05:03:00;;;;;;;28.5;25.6;;;;;;;5.9;100.0;102640;;;;
2022/03/24 05:04:00;;;;;;;28.5;25.6;;;;;;;5.9;100.0;102640;;;;
2022/03/24 05:05:00;;;;;;;28.5;25.6;;;;;;;5.9;100.0;102640;;;;
2022/03/24 05:06:00;;;;;;;28.5;25.6;;;;;;;5.9;100.0;102640;;;;
2022/03/24 05:07:00;;;;;;;28.5;25.6;;;;;;;5.8;100.0;102650;;;;
2022/03/24 05:08:00;;;;;;;28.5;25.6;;;;;;;5.8;100.0;102650;;;;
2022/03/24 05:09:00;;;;;;;28.5;25.6;;;;;;;5.8;100.0;102640;;;;
2022/03/24 05:10:00;;;;;;;28.5;25.6;;;;;;;5.8;100.0;102640;;;;
2022/03/24 05:11:00;;;;;;;28.5;25.6;;;;;;;5.9;100.0;102650;;;;
2022/03/24 05:12:00;;;;;;;28.5;25.6;;;;;;;5.9;100.0;102650;;;;
2022/03/24 05:13:00;;;;;;;28.5;25.6;;;;;;;5.8;100.0;102650;;;;
2022/03/24 05:14:01;;;;;;;28.5;25.6;;;;;;;5.8;100.0;102650;;;;
2022/03/24 05:15:00;;;;;;;28.5;25.6;;;;;;;5.8;100.0;102640;;;;
2022/03/24 05:16:00;;;;;;;28.5;25.6;;;;;;;5.8;100.0;102640;;;;
2022/03/24 05:17:01;;;;;;;28.5;25.6;;;;;;;5.8;100.0;102650;;;;
2022/03/24 05:18:04;;;;;;;28.5;25.6;;;;;;;5.8;100.0;102650;;;;
2022/03/24 05:19:00;;;;;;;28.5;25.6;;;;;;;5.8;100.0;102640;;;;
2022/03/24 05:20:00;;;;;;;29.5;26.3;;;;;;;5.8;100.0;102640;;;;
2022/03/24 05:21:00;;;;;;;29.5;26.3;;;;;;;5.8;100.0;102650;;;;
2022/03/24 05:22:01;;;;;;;29.5;26.3;;;;;;;5.8;100.0;102650;;;;
2022/03/24 05:23:01;;;;;;;29.5;26.3;;;;;;;5.8;100.0;102640;;;;
2022/03/24 05:24:00;;;;;;;29.5;26.3;;;;;;;5.8;100.0;102640;;;;
2022/03/24 05:25:00;;;;;;;29.5;26.3;;;;;;;5.7;100.0;102640;;;;
2022/03/24 05:26:01;;;;;;;29.5;26.3;;;;;;;5.7;100.0;102640;;;;
2022/03/24 05:27:00;;;;;;;29.5;26.3;;;;;;;5.7;100.0;102640;;;;
2022/03/24 05:28:00;;;;;;;29.5;26.3;;;;;;;5.7;100.0;102640;;;;
2022/03/24 05:29:00;;;;;;;29.5;26.3;;;;;;;5.7;100.0;102650;;;;
2022/03/24 05:30:00;;;;;;;29.5;26.3;;;;;;;5.7;100.0;102650;;;;
2022/03/24 05:31:00;;;;;;;29.5;26.3;;;;;;;5.7;100.0;102650;;;;
2022/03/24 05:32:00;;;;;;;29.5;26.3;;;;;;;5.7;100.0;102650;;;;
2022/03/24 05:33:00;;;;;;;29.5;26.3;;;;;;;5.6;100.0;102650;;;;
2022/03/24 05:34:00;;;;;;;29.5;26.3;;;;;;;5.6;100.0;102650;;;;
2022/03/24 05:35:00;;;;;;;29.5;26.3;;;;;;;5.5;100.0;102650;;;;
2022/03/24 05:36:00;;;;;;;29.5;26.3;;;;;;;5.5;100.0;102650;;;;
2022/03/24 05:37:00;;;;;;;29.5;26.3;;;;;;;5.5;100.0;102650;;;;
2022/03/24 05:38:00;;;;;;;29.5;26.3;;;;;;;5.5;100.0;102650;;;;
2022/03/24 05:39:00;;;;;;;29.5;26.3;;;;;;;5.5;100.0;102650;;;;
2022/03/24 05:40:00;;;;;;;29.7;26.6;;;;;;;5.5;100.0;102650;;;;
2022/03/24 05:41:01;;;;;;;29.7;26.6;;;;;;;5.6;100.0;102650;;;;
2022/03/24 05:42:02;;;;;;;29.7;26.6;;;;;;;5.6;100.0;102650;;;;
2022/03/24 05:43:00;;;;;;;29.7;26.6;;;;;;;5.6;100.0;102650;;;;
2022/03/24 05:44:03;;;;;;;29.7;26.6;;;;;;;5.6;100.0;102650;;;;
2022/03/24 05:45:00;;;;;;;29.7;26.6;;;;;;;5.6;100.0;102650;;;;
2022/03/24 05:46:00;;;;;;;29.7;26.6;;;;;;;5.6;100.0;102650;;;;
2022/03/24 05:47:00;;;;;;;29.7;26.6;;;;;;;5.5;100.0;102650;;;;
2022/03/24 05:48:00;;;;;;;29.7;26.6;;;;;;;5.5;100.0;102650;;;;
2022/03/24 05:49:00;;;;;;;29.7;26.6;;;;;;;5.6;100.0;102650;;;;
2022/03/24 05:50:00;;;;;;;29.7;26.6;;;;;;;5.6;100.0;102650;;;;
2022/03/24 05:51:00;;;;;;;29.7;26.6;;;;;;;5.5;100.0;102650;;;;
2022/03/24 05:52:00;;;;;;;29.7;26.6;;;;;;;5.5;100.0;102650;;;;
2022/03/24 05:53:00;;;;;;;29.7;26.6;;;;;;;5.5;100.0;102660;;;;
2022/03/24 05:54:00;;;;;;;29.7;26.6;;;;;;;5.5;100.0;102660;;;;
2022/03/24 05:55:00;;;;;;;29.7;26.6;;;;;;;5.6;100.0;102650;;;;
2022/03/24 05:56:00;;;;;;;29.7;26.6;;;;;;;5.6;100.0;102650;;;;
2022/03/24 05:57:00;;;;;;;29.7;26.6;;;;;;;5.6;100.0;102650;;;;
2022/03/24 05:58:00;;;;;;;29.7;26.6;;;;;;;5.6;100.0;102650;;;;
2022/03/24 05:59:00;;;;;;;29.7;26.6;;;;;;;5.6;100.0;102650;;;;
2022/03/24 06:00:01;;;;;;;29.4;25.6;;;;;;;5.6;100.0;102650;;;;
2022/03/24 06:01:01;;;;;;;29.4;25.6;;;;;;;5.6;100.0;102650;;;;
2022/03/24 06:02:00;;;;;;;29.4;25.6;;;;;;;5.6;100.0;102650;;;;
2022/03/24 06:03:01;;;;;;;29.4;25.6;;;;;;;5.6;100.0;102650;;;;
2022/03/24 06:04:00;;;;;;;29.4;25.6;;;;;;;5.6;100.0;102650;;;;
2022/03/24 06:05:00;;;;;;;29.4;25.6;;;;;;;5.6;100.0;102650;;;;
2022/03/24 06:06:00;;;;;;;29.4;25.6;;;;;;;5.6;100.0;102650;;;;
2022/03/24 06:07:01;;;;;;;29.4;25.6;;;;;;;5.6;100.0;102650;;;;
2022/03/24 06:08:01;;;;;;;29.4;25.6;;;;;;;5.6;100.0;102650;;;;
2022/03/24 06:09:02;;;;;;;29.4;25.6;;;;;;;5.5;100.0;102660;;;;
2022/03/24 06:10:00;;;;;;;29.4;25.6;;;;;;;5.5;100.0;102660;;;;
2022/03/24 06:11:00;;;;;;;29.4;25.6;;;;;;;5.5;100.0;102660;;;;
2022/03/24 06:12:00;;;;;;;29.4;25.6;;;;;;;5.5;100.0;102660;;;;
2022/03/24 06:13:00;;;;;;;29.4;25.6;;;;;;;5.5;100.0;102660;;;;
2022/03/24 06:14:00;;;;;;;29.4;25.6;;;;;;;5.5;100.0;102660;;;;
2022/03/24 06:15:00;;;;;;;29.4;25.6;;;;;;;5.5;100.0;102660;;;;
2022/03/24 06:16:01;;;;;;;29.4;25.6;;;;;;;5.5;100.0;102660;;;;
2022/03/24 06:17:00;;;;;;;29.4;25.6;;;;;;;5.6;100.0;102660;;;;